createdAt,value
2022-08-02T00:00:34.377Z,19.13
2022-08-02T00:03:01.077Z,19.04
2022-08-02T00:05:27.886Z,19.02
2022-08-02T00:07:54.538Z,19.03
2022-08-02T00:10:21.245Z,18.96
2022-08-02T00:12:47.927Z,18.89
2022-08-02T00:15:16.281Z,18.85
2022-08-02T00:17:44.242Z,18.89
2022-08-02T00:20:11.957Z,18.92
2022-08-02T00:22:38.975Z,18.92
2022-08-02T00:25:06.491Z,18.89
2022-08-02T00:27:33.208Z,18.85
2022-08-02T00:29:59.913Z,18.80
2022-08-02T00:32:26.612Z,18.82
2022-08-02T00:34:53.281Z,18.89
2022-08-02T00:37:19.928Z,18.98
2022-08-02T00:39:46.657Z,19.00
2022-08-02T00:42:16.689Z,19.06
2022-08-02T00:44:43.533Z,19.08
2022-08-02T00:47:10.443Z,19.00
2022-08-02T00:49:37.653Z,18.85
2022-08-02T00:52:05.282Z,18.83
2022-08-02T00:54:32.169Z,18.85
2022-08-02T00:56:58.898Z,18.82
2022-08-02T00:59:25.571Z,18.73
2022-08-02T01:01:57.136Z,18.69
2022-08-02T01:04:30.017Z,18.68
2022-08-02T01:07:00.111Z,18.68
2022-08-02T01:09:26.979Z,18.68
2022-08-02T01:11:54.014Z,18.71
2022-08-02T01:14:24.575Z,18.68
2022-08-02T01:17:08.897Z,18.63
2022-08-02T01:19:54.385Z,18.59
2022-08-02T01:23:01.204Z,18.59
2022-08-02T01:25:29.018Z,18.57
2022-08-02T01:28:17.695Z,18.60
2022-08-02T01:30:48.483Z,18.58
2022-08-02T01:33:21.196Z,18.53
2022-08-02T01:35:56.491Z,18.46
2022-08-02T01:38:29.582Z,18.33
2022-08-02T01:40:59.011Z,18.29
2022-08-02T01:43:29.359Z,18.31
2022-08-02T01:45:58.779Z,18.31
2022-08-02T01:48:28.720Z,18.31
2022-08-02T01:50:57.441Z,18.24
2022-08-02T01:53:27.212Z,18.16
2022-08-02T01:55:58.396Z,18.13
2022-08-02T01:58:31.213Z,18.14
2022-08-02T02:00:59.857Z,18.12
2022-08-02T02:03:29.113Z,18.08
2022-08-02T02:05:57.868Z,18.16
2022-08-02T02:08:29.153Z,18.25
2022-08-02T02:10:57.509Z,18.27
2022-08-02T02:13:45.335Z,18.31
2022-08-02T02:16:14.136Z,18.37
2022-08-02T02:18:44.583Z,18.39
2022-08-02T02:21:13.397Z,18.36
2022-08-02T02:23:40.775Z,18.39
2022-08-02T02:26:11.839Z,18.39
2022-08-02T02:28:40.091Z,18.43
2022-08-02T02:31:13.939Z,18.44
2022-08-02T02:33:46.995Z,18.41
2022-08-02T02:36:16.702Z,18.38
2022-08-02T02:38:45.441Z,18.29
2022-08-02T02:41:13.816Z,18.21
2022-08-02T02:43:42.247Z,18.10
2022-08-02T02:46:10.764Z,18.13
2022-08-02T02:48:37.940Z,18.13
2022-08-02T02:51:08.171Z,18.11
2022-08-02T02:54:33.470Z,18.13
2022-08-02T02:56:29.368Z,18.17
2022-08-02T02:58:56.321Z,18.12
2022-08-02T03:01:35.883Z,17.95
2022-08-02T03:04:17.974Z,17.94
2022-08-02T03:06:45.121Z,17.96
2022-08-02T03:09:12.247Z,17.77
2022-08-02T03:11:40.707Z,17.59
2022-08-02T03:14:11.525Z,17.40
2022-08-02T03:16:45.492Z,17.28
2022-08-02T03:19:12.677Z,17.19
2022-08-02T03:21:39.667Z,17.33
2022-08-02T03:24:07.097Z,17.47
2022-08-02T03:26:33.797Z,17.59
2022-08-02T03:29:00.756Z,17.66
2022-08-02T03:31:39.923Z,17.72
2022-08-02T03:34:06.600Z,17.75
2022-08-02T03:36:36.446Z,17.74
2022-08-02T03:39:04.838Z,17.76
2022-08-02T03:41:33.232Z,17.80
2022-08-02T03:44:00.865Z,17.86
2022-08-02T03:46:28.214Z,17.88
2022-08-02T03:48:56.261Z,17.88
2022-08-02T03:51:24.055Z,17.87
2022-08-02T03:53:50.978Z,17.91
2022-08-02T03:56:18.566Z,17.91
2022-08-02T03:58:49.149Z,17.94
2022-08-02T04:01:16.881Z,17.86
2022-08-02T04:03:43.948Z,17.82
2022-08-02T04:06:10.747Z,17.78
2022-08-02T04:08:38.651Z,17.67
2022-08-02T04:11:25.232Z,17.74
2022-08-02T04:13:56.795Z,17.83
2022-08-02T04:16:48.893Z,17.87
2022-08-02T04:19:50.224Z,17.98
2022-08-02T04:22:21.395Z,18.06
2022-08-02T04:24:51.977Z,18.01
2022-08-02T04:27:51.221Z,17.94
2022-08-02T04:30:08.446Z,17.89
2022-08-02T04:32:35.985Z,17.83
2022-08-02T04:35:19.643Z,17.73
2022-08-02T04:38:08.751Z,17.79
2022-08-02T04:40:34.466Z,17.96
2022-08-02T04:43:01.214Z,17.96
2022-08-02T04:45:30.520Z,17.99
2022-08-02T04:48:05.659Z,18.10
2022-08-02T04:50:33.478Z,18.25
2022-08-02T04:53:00.222Z,18.38
2022-08-02T04:55:29.087Z,18.50
2022-08-02T04:57:57.800Z,18.58
2022-08-02T05:00:26.506Z,18.64
2022-08-02T05:02:54.220Z,18.63
2022-08-02T05:05:21.064Z,18.76
2022-08-02T05:07:47.822Z,18.85
2022-08-02T05:10:15.231Z,18.94
2022-08-02T05:12:42.029Z,18.98
2022-08-02T05:15:12.646Z,19.09
2022-08-02T05:17:47.953Z,19.15
2022-08-02T05:20:20.106Z,19.16
2022-08-02T05:22:47.650Z,19.11
2022-08-02T05:25:15.237Z,19.11
2022-08-02T05:27:42.248Z,19.15
2022-08-02T05:30:09.473Z,19.26
2022-08-02T05:32:44.130Z,19.44
2022-08-02T05:35:10.987Z,19.61
2022-08-02T05:37:37.844Z,19.68
2022-08-02T05:40:05.434Z,19.72
2022-08-02T05:42:40.637Z,19.75
2022-08-02T05:45:07.619Z,19.75
2022-08-02T05:47:34.579Z,19.83
2022-08-02T05:50:01.411Z,19.98
2022-08-02T05:52:41.298Z,20.15
2022-08-02T05:55:17.303Z,20.32
2022-08-02T05:58:02.703Z,20.42
2022-08-02T06:00:33.689Z,20.45
2022-08-02T06:03:21.904Z,20.50
2022-08-02T06:06:05.762Z,20.54
2022-08-02T06:08:58.756Z,20.61
2022-08-02T06:11:36.752Z,20.69
2022-08-02T06:14:05.874Z,20.76
2022-08-02T06:16:41.207Z,20.76
2022-08-02T06:19:11.709Z,20.74
2022-08-02T06:22:32.032Z,20.69
2022-08-02T06:24:30.642Z,20.72
2022-08-02T06:26:58.548Z,21.50
2022-08-02T06:29:26.232Z,21.66
2022-08-02T06:31:54.011Z,22.00
2022-08-02T06:34:20.846Z,22.28
2022-08-02T06:37:07.597Z,22.27
2022-08-02T06:39:46.748Z,22.26
2022-08-02T06:42:17.430Z,22.16
2022-08-02T06:44:57.936Z,21.95
2022-08-02T06:47:25.272Z,21.74
2022-08-02T06:49:54.183Z,21.62
2022-08-02T06:52:28.735Z,21.58
2022-08-02T06:54:59.194Z,21.69
2022-08-02T06:57:27.045Z,21.65
2022-08-02T06:59:54.297Z,21.95
2022-08-02T07:02:21.268Z,21.73
2022-08-02T07:04:48.145Z,21.71
2022-08-02T07:07:14.848Z,21.82
2022-08-02T07:10:00.173Z,23.79
2022-08-02T07:12:32.498Z,25.49
2022-08-02T07:15:01.582Z,26.96
2022-08-02T07:17:29.391Z,28.50
2022-08-02T07:19:57.039Z,29.87
2022-08-02T07:22:24.661Z,30.17
2022-08-02T07:24:51.872Z,30.43
2022-08-02T07:27:19.697Z,31.11
2022-08-02T07:29:48.973Z,31.40
2022-08-02T07:32:19.493Z,31.52
2022-08-02T07:34:50.468Z,31.51
2022-08-02T07:37:35.380Z,31.69
2022-08-02T07:40:15.157Z,32.04
2022-08-02T07:42:52.469Z,32.29
2022-08-02T07:45:20.328Z,32.50
2022-08-02T07:47:47.258Z,33.33
2022-08-02T07:50:15.795Z,33.70
2022-08-02T07:52:43.423Z,34.41
2022-08-02T07:55:11.170Z,35.04
2022-08-02T07:57:44.082Z,34.86
2022-08-02T08:00:13.697Z,35.19
2022-08-02T08:02:40.888Z,35.28
2022-08-02T08:05:08.664Z,34.84
2022-08-02T08:07:35.726Z,34.39
2022-08-02T08:10:04.037Z,34.04
2022-08-02T08:12:30.712Z,34.01
2022-08-02T08:14:57.522Z,34.29
2022-08-02T08:17:24.201Z,34.87
2022-08-02T08:19:52.943Z,35.74
2022-08-02T08:22:20.697Z,36.89
2022-08-02T08:24:48.641Z,37.69
2022-08-02T08:27:16.123Z,38.62
2022-08-02T08:29:43.370Z,39.26
2022-08-02T08:32:15.792Z,39.87
2022-08-02T08:34:43.376Z,40.37
2022-08-02T08:37:10.305Z,40.99
2022-08-02T08:39:56.824Z,40.71
2022-08-02T08:42:28.272Z,41.19
2022-08-02T08:44:57.457Z,41.94
2022-08-02T08:47:27.059Z,42.65
2022-08-02T08:50:05.022Z,42.95
2022-08-02T08:52:36.042Z,43.48
2022-08-02T08:55:05.088Z,43.80
2022-08-02T08:57:37.689Z,44.27
2022-08-02T09:00:04.993Z,44.64
2022-08-02T09:02:36.202Z,44.79
2022-08-02T09:05:03.110Z,45.34
2022-08-02T09:07:29.858Z,45.27
2022-08-02T09:09:56.580Z,45.45
2022-08-02T09:12:25.261Z,45.85
2022-08-02T09:14:52.461Z,45.87
2022-08-02T09:17:21.925Z,46.30
2022-08-02T09:20:07.547Z,45.44
2022-08-02T09:22:34.597Z,41.79
2022-08-02T09:25:01.727Z,39.21
2022-08-02T09:27:36.106Z,37.39
2022-08-02T09:30:12.710Z,36.08
2022-08-02T09:32:48.133Z,35.06
2022-08-02T09:36:06.665Z,34.24
2022-08-02T09:38:18.874Z,33.94
2022-08-02T09:40:45.738Z,33.60
2022-08-02T09:43:12.433Z,33.03
2022-08-02T09:45:39.204Z,32.54
2022-08-02T09:48:09.918Z,32.04
2022-08-02T09:50:40.116Z,31.95
2022-08-02T09:53:11.959Z,31.64
2022-08-02T09:55:39.031Z,31.76
2022-08-02T09:58:19.553Z,31.92
2022-08-02T10:00:57.357Z,31.90
2022-08-02T10:03:24.497Z,31.72
2022-08-02T10:06:02.314Z,31.74
2022-08-02T10:08:32.750Z,31.69
2022-08-02T10:11:01.041Z,31.93
2022-08-02T10:13:29.608Z,32.17
2022-08-02T10:15:57.521Z,31.78
2022-08-02T10:18:38.224Z,31.73
2022-08-02T10:21:24.186Z,31.97
2022-08-02T10:23:53.651Z,32.17
2022-08-02T10:26:21.141Z,31.83
2022-08-02T10:28:49.709Z,31.37
2022-08-02T10:31:27.324Z,31.01
2022-08-02T10:33:58.656Z,30.84
2022-08-02T10:36:27.413Z,30.96
2022-08-02T10:38:56.183Z,30.99
2022-08-02T10:41:42.054Z,30.76
2022-08-02T10:44:24.171Z,30.51
2022-08-02T10:46:53.184Z,30.54
2022-08-02T10:52:09.541Z,31.21
2022-08-02T10:54:42.688Z,31.41
2022-08-02T10:57:24.124Z,32.03
2022-08-02T10:59:55.431Z,32.15
2022-08-02T11:02:47.143Z,32.54
2022-08-02T11:05:43.503Z,32.84
2022-08-02T11:08:18.463Z,32.94
2022-08-02T11:10:45.265Z,33.05
2022-08-02T11:13:19.847Z,33.20
2022-08-02T11:16:11.291Z,33.38
2022-08-02T11:18:44.266Z,33.52
2022-08-02T11:21:28.648Z,33.65
2022-08-02T11:23:56.179Z,33.76
2022-08-02T11:26:31.722Z,33.97
2022-08-02T11:29:00.452Z,34.06
2022-08-02T11:31:28.339Z,34.15
2022-08-02T11:33:56.086Z,34.08
2022-08-02T11:36:23.081Z,33.86
2022-08-02T11:38:50.081Z,33.59
2022-08-02T11:41:46.149Z,33.08
2022-08-02T11:44:10.458Z,32.79
2022-08-02T11:46:37.462Z,32.61
2022-08-02T11:49:18.445Z,32.49
2022-08-02T11:51:57.840Z,32.37
2022-08-02T11:54:35.997Z,32.05
2022-08-02T11:57:20.893Z,32.09
2022-08-02T11:59:50.330Z,32.73
2022-08-02T12:02:18.792Z,33.03
2022-08-02T12:04:58.961Z,33.18
2022-08-02T12:07:34.330Z,33.67
2022-08-02T12:10:11.595Z,34.03
2022-08-02T12:12:57.978Z,34.37
2022-08-02T12:15:44.730Z,34.69
2022-08-02T12:18:31.604Z,34.14
2022-08-02T12:20:58.721Z,33.94
2022-08-02T12:23:26.815Z,34.10
2022-08-02T12:26:00.508Z,34.39
2022-08-02T12:28:27.379Z,34.74
2022-08-02T12:30:58.241Z,34.91
2022-08-02T12:33:27.671Z,34.69
2022-08-02T12:35:55.025Z,34.09
2022-08-02T12:38:22.116Z,33.58
2022-08-02T12:40:49.521Z,33.36
2022-08-02T12:43:19.579Z,33.09
2022-08-02T12:45:49.743Z,32.95
2022-08-02T12:48:17.900Z,32.69
2022-08-02T12:50:45.088Z,32.38
2022-08-02T12:53:17.135Z,32.17
2022-08-02T12:56:01.845Z,32.07
2022-08-02T12:58:31.783Z,32.00
2022-08-02T13:01:01.157Z,31.87
2022-08-02T13:04:07.827Z,31.81
2022-08-02T13:06:41.320Z,31.69
2022-08-02T13:09:12.629Z,31.51
2022-08-02T13:11:43.390Z,31.47
2022-08-02T13:14:11.881Z,31.32
2022-08-02T13:16:38.690Z,31.28
2022-08-02T13:19:05.536Z,31.20
2022-08-02T13:21:41.052Z,31.17
2022-08-02T13:24:38.517Z,31.16
2022-08-02T13:27:08.737Z,31.10
2022-08-02T13:29:37.766Z,31.16
2022-08-02T13:32:04.686Z,31.20
2022-08-02T13:34:31.390Z,31.20
2022-08-02T13:36:58.932Z,31.16
2022-08-02T13:39:25.778Z,31.16
2022-08-02T13:41:52.865Z,31.13
2022-08-02T13:44:19.675Z,31.15
2022-08-02T13:46:46.441Z,31.01
2022-08-02T13:49:18.456Z,31.08
2022-08-02T13:51:47.765Z,31.15
2022-08-02T13:54:15.556Z,31.14
2022-08-02T13:56:42.550Z,31.20
2022-08-02T13:59:57.456Z,31.17
2022-08-02T14:01:57.285Z,31.00
2022-08-02T14:04:24.865Z,30.94
2022-08-02T14:06:51.850Z,30.98
2022-08-02T14:09:18.838Z,31.04
2022-08-02T14:11:46.881Z,31.01
2022-08-02T14:14:16.643Z,30.95
2022-08-02T14:16:44.393Z,30.91
2022-08-02T14:19:16.648Z,30.99
2022-08-02T14:21:46.798Z,31.10
2022-08-02T14:24:21.595Z,31.08
2022-08-02T14:26:48.709Z,31.03
2022-08-02T14:29:16.329Z,31.05
2022-08-02T14:31:44.977Z,31.04
2022-08-02T14:34:13.086Z,31.08
2022-08-02T14:36:39.797Z,31.07
2022-08-02T14:39:07.092Z,31.04
2022-08-02T14:41:59.493Z,30.97
2022-08-02T14:44:24.031Z,30.90
2022-08-02T14:46:51.344Z,30.85
2022-08-02T14:49:25.484Z,30.90
2022-08-02T14:51:55.134Z,30.92
2022-08-02T14:54:33.314Z,30.91
2022-08-02T14:57:03.287Z,30.85
2022-08-02T14:59:30.889Z,30.72
2022-08-02T15:01:58.782Z,30.74
2022-08-02T15:04:26.002Z,30.78
2022-08-02T15:06:53.178Z,30.64
2022-08-02T15:09:20.243Z,30.63
2022-08-02T15:11:49.124Z,30.54
2022-08-02T15:14:21.804Z,30.54
2022-08-02T15:16:57.152Z,30.47
2022-08-02T15:19:37.728Z,30.44
2022-08-02T15:22:15.756Z,30.34
2022-08-02T15:24:45.010Z,30.26
2022-08-02T15:27:14.406Z,30.18
2022-08-02T15:29:42.893Z,30.22
2022-08-02T15:32:09.952Z,30.26
2022-08-02T15:34:37.091Z,30.36
2022-08-02T15:37:03.969Z,30.40
2022-08-02T15:39:30.760Z,30.29
2022-08-02T15:41:57.604Z,30.27
2022-08-02T15:44:25.139Z,30.24
2022-08-02T15:46:53.392Z,30.25
2022-08-02T15:49:23.644Z,30.29
2022-08-02T15:51:52.067Z,30.22
2022-08-02T15:54:19.116Z,30.23
2022-08-02T15:56:46.744Z,30.21
2022-08-02T15:59:13.688Z,30.27
2022-08-02T16:01:44.867Z,30.28
2022-08-02T16:04:14.498Z,30.21
2022-08-02T16:06:41.208Z,30.15
2022-08-02T16:09:07.977Z,30.09
2022-08-02T16:11:34.638Z,30.05
2022-08-02T16:14:01.505Z,30.05
2022-08-02T16:16:31.229Z,30.07
2022-08-02T16:18:58.506Z,30.13
2022-08-02T16:21:25.562Z,30.10
2022-08-02T16:24:01.715Z,29.97
2022-08-02T16:26:34.336Z,29.92
2022-08-02T16:29:03.038Z,29.89
2022-08-02T16:31:30.204Z,29.86
2022-08-02T16:33:57.611Z,29.86
2022-08-02T16:36:25.749Z,29.86
2022-08-02T16:38:53.938Z,29.85
2022-08-02T16:41:22.986Z,29.72
2022-08-02T16:43:50.248Z,29.64
2022-08-02T16:46:17.037Z,29.51
2022-08-02T16:48:51.205Z,29.42
2022-08-02T16:51:19.173Z,29.37
2022-08-02T16:54:00.555Z,29.25
2022-08-02T16:56:28.799Z,29.17
2022-08-02T16:58:59.447Z,29.22
2022-08-02T17:02:01.892Z,29.28
2022-08-02T17:04:15.588Z,29.29
2022-08-02T17:06:47.554Z,29.24
2022-08-02T17:10:01.948Z,29.13
2022-08-02T17:12:08.313Z,29.13
2022-08-02T17:17:34.231Z,29.08
2022-08-02T17:20:02.687Z,29.07
2022-08-02T17:22:29.412Z,29.06
2022-08-02T17:24:56.477Z,29.07
2022-08-02T17:27:26.251Z,29.08
2022-08-02T17:29:53.488Z,29.07
2022-08-02T17:32:20.383Z,29.05
2022-08-02T17:34:48.899Z,29.02
2022-08-02T17:37:23.462Z,28.98
2022-08-02T17:42:36.889Z,28.89
2022-08-02T17:45:17.125Z,28.83
2022-08-02T17:48:04.505Z,28.80
2022-08-02T17:50:35.305Z,28.81
2022-08-02T17:53:03.910Z,28.78
2022-08-02T17:55:31.181Z,28.75
2022-08-02T17:57:59.290Z,28.73
2022-08-02T18:00:36.932Z,28.72
2022-08-02T18:03:09.783Z,28.71
2022-08-02T18:05:40.006Z,28.68
2022-08-02T18:08:21.614Z,28.65
2022-08-02T18:10:50.453Z,28.60
2022-08-02T18:13:17.104Z,28.56
2022-08-02T18:15:45.737Z,28.55
2022-08-02T18:18:14.419Z,28.50
2022-08-02T18:20:41.421Z,28.49
2022-08-02T18:23:10.898Z,28.45
2022-08-02T18:25:44.248Z,28.42
2022-08-02T18:28:13.846Z,28.37
2022-08-02T18:30:40.860Z,28.35
2022-08-02T18:33:59.212Z,28.31
2022-08-02T18:35:56.453Z,28.25
2022-08-02T18:38:26.724Z,28.20
2022-08-02T18:40:54.898Z,28.10
2022-08-02T18:43:25.378Z,28.00
2022-08-02T18:46:05.974Z,27.96
2022-08-02T18:48:44.217Z,27.88
2022-08-02T18:51:18.919Z,27.83
2022-08-02T18:53:55.689Z,27.77
2022-08-02T18:56:25.176Z,27.72
2022-08-02T18:58:55.919Z,27.67
2022-08-02T19:01:32.529Z,27.57
2022-08-02T19:04:05.263Z,27.46
2022-08-02T19:06:36.368Z,27.34
2022-08-02T19:09:13.183Z,27.22
2022-08-02T19:11:48.200Z,27.17
2022-08-02T19:14:27.618Z,27.10
2022-08-02T19:17:15.907Z,27.04
2022-08-02T19:19:48.896Z,27.02
2022-08-02T19:22:22.455Z,26.98
2022-08-02T19:25:01.276Z,26.90
2022-08-02T19:27:40.003Z,26.84
2022-08-02T19:30:17.224Z,26.75
2022-08-02T19:32:59.448Z,26.66
2022-08-02T19:35:34.465Z,26.57
2022-08-02T19:38:14.259Z,26.45
2022-08-02T19:40:42.358Z,26.36
2022-08-02T19:44:23.729Z,26.25
2022-08-02T19:46:33.117Z,26.17
2022-08-02T19:49:17.017Z,26.10
2022-08-02T19:54:55.255Z,25.90
2022-08-02T19:57:25.159Z,25.78
2022-08-02T19:59:54.171Z,25.77
2022-08-02T20:02:23.990Z,25.74
2022-08-02T20:04:55.165Z,25.73
2022-08-02T20:07:49.839Z,25.74
2022-08-02T20:10:13.973Z,25.70
2022-08-02T20:12:51.209Z,25.68
2022-08-02T20:15:20.968Z,25.68
2022-08-02T20:17:51.526Z,25.69
2022-08-02T20:20:23.606Z,25.73
2022-08-02T20:23:33.705Z,25.59
2022-08-02T20:26:05.829Z,25.58
2022-08-02T20:28:36.651Z,25.58
2022-08-02T20:31:07.102Z,25.48
2022-08-02T20:33:55.800Z,25.44
2022-08-02T20:36:25.650Z,25.31
2022-08-02T20:38:55.629Z,25.29
2022-08-02T20:41:37.288Z,25.31
2022-08-02T20:44:15.484Z,25.33
2022-08-02T20:46:59.650Z,25.30
2022-08-02T20:49:40.822Z,25.28
2022-08-02T20:54:56.784Z,25.23
2022-08-02T20:57:48.861Z,25.21
2022-08-02T21:00:15.619Z,25.18
2022-08-02T21:02:43.323Z,25.16
2022-08-02T21:05:18.422Z,25.15
2022-08-02T21:07:53.409Z,25.15
2022-08-02T21:10:31.829Z,25.15
2022-08-02T21:13:00.654Z,25.11
2022-08-02T21:18:49.972Z,25.00
2022-08-02T21:21:19.846Z,24.93
2022-08-02T21:23:54.467Z,24.86
2022-08-02T21:26:30.395Z,24.85
2022-08-02T21:29:03.091Z,24.81
2022-08-02T21:31:36.629Z,24.72
2022-08-02T21:34:22.476Z,24.67
2022-08-02T21:36:55.902Z,24.62
2022-08-02T21:39:24.382Z,24.54
2022-08-02T21:41:53.724Z,24.54
2022-08-02T21:44:23.151Z,24.53
2022-08-02T21:46:55.196Z,24.54
2022-08-02T21:49:40.659Z,24.56
2022-08-02T21:52:14.302Z,24.43
2022-08-02T21:54:46.000Z,24.40
2022-08-02T21:57:18.800Z,24.41
2022-08-02T21:59:48.741Z,24.39
2022-08-02T22:02:30.742Z,24.41
2022-08-02T22:05:02.630Z,24.36
2022-08-02T22:07:38.352Z,24.29
2022-08-02T22:10:09.596Z,24.15
2022-08-02T22:12:37.359Z,24.15
2022-08-02T22:15:11.779Z,24.10
2022-08-02T22:17:53.446Z,24.12
2022-08-02T22:20:29.243Z,24.16
2022-08-02T22:22:57.690Z,24.09
2022-08-02T22:25:36.811Z,23.94
2022-08-02T22:28:38.617Z,23.86
2022-08-02T22:31:05.020Z,23.91
2022-08-02T22:34:00.135Z,23.97
2022-08-02T22:36:30.226Z,23.97
2022-08-02T22:39:02.141Z,23.93
2022-08-02T22:42:01.553Z,23.91
2022-08-02T22:44:23.626Z,23.82
2022-08-02T22:46:52.517Z,23.72
2022-08-02T22:49:38.657Z,23.78
2022-08-02T22:52:14.248Z,23.82
2022-08-02T22:54:45.168Z,23.78
2022-08-02T22:57:16.554Z,23.66
2022-08-02T22:58:39.641Z,28.95
2022-08-02T22:58:49.728Z,29.12
2022-08-02T22:59:05.500Z,26.01
2022-08-02T22:59:06.306Z,25.24
2022-08-02T22:59:10.424Z,25.02
2022-08-02T22:59:56.529Z,23.50
2022-08-02T23:02:26.589Z,23.54
2022-08-02T23:04:53.911Z,23.53
2022-08-02T23:07:21.595Z,23.46
2022-08-02T23:09:51.219Z,23.39
2022-08-02T23:12:22.829Z,23.28
2022-08-02T23:14:58.516Z,23.21
2022-08-02T23:17:46.132Z,23.10
2022-08-02T23:20:14.732Z,23.21
2022-08-02T23:22:42.551Z,23.27
2022-08-02T23:25:13.580Z,23.28
2022-08-02T23:27:49.892Z,23.24
2022-08-02T23:30:21.371Z,23.19
2022-08-02T23:32:53.260Z,23.16
2022-08-02T23:35:22.027Z,23.06
2022-08-02T23:37:59.379Z,23.00
2022-08-02T23:40:40.719Z,23.05
2022-08-02T23:43:13.715Z,23.05
2022-08-02T23:45:47.804Z,23.00
2022-08-02T23:48:20.420Z,23.03
2022-08-02T23:50:55.953Z,22.96
2022-08-02T23:53:25.044Z,22.99
2022-08-02T23:55:53.060Z,22.90
2022-08-02T23:58:25.007Z,22.74
